Time;durP1;ratioP1;P1;durP2;ratioP2;P2;SDS_P1;SDS_P2;PMS_P1;PMS_P2;Temp;Humidity;BMP_temperature;BMP_pressure;BME280_temperature;BME280_humidity;BME280_pressure;Samples;Min_cycle;Max_cycle;Signal;HPM_P1;HPM_P2
2023/05/09 00:00:09;;;;;;;34.50;26.37;;;;;;;14.54;100.00;101713.66;5054108;28;20072;-81
2023/05/09 00:02:37;;;;;;;32.83;25.70;;;;;;;14.47;100.00;101703.56;5057856;28;20272;-81
2023/05/09 00:05:03;;;;;;;32.47;24.83;;;;;;;14.47;100.00;101703.56;5055806;28;20112;-81
2023/05/09 00:07:30;;;;;;;32.33;24.27;;;;;;;14.43;100.00;101700.28;5037569;28;20077;-81
2023/05/09 00:09:55;;;;;;;32.78;24.25;;;;;;;14.41;100.00;101697.75;5037091;28;20394;-82
2023/05/09 00:12:20;;;;;;;30.50;23.02;;;;;;;14.43;100.00;101697.63;5026375;28;20057;-82
2023/05/09 00:14:49;;;;;;;33.50;23.85;;;;;;;14.44;100.00;101702.84;5030201;28;20022;-82
2023/05/09 00:17:15;;;;;;;30.80;22.93;;;;;;;14.38;100.00;101689.97;5021559;28;20032;-82
2023/05/09 00:19:42;;;;;;;29.85;21.92;;;;;;;14.37;100.00;101687.41;5026803;28;20483;-82
2023/05/09 00:22:08;;;;;;;29.10;22.83;;;;;;;14.36;100.00;101691.06;5021965;28;20041;-81
2023/05/09 00:24:33;;;;;;;27.75;21.70;;;;;;;14.35;100.00;101692.03;5022662;28;20034;-81
2023/05/09 00:26:58;;;;;;;28.38;20.98;;;;;;;14.34;100.00;101690.31;5023756;28;20480;-81
2023/05/09 00:29:24;;;;;;;29.60;21.92;;;;;;;14.30;100.00;101678.19;5029857;28;20026;-81
2023/05/09 00:31:49;;;;;;;29.92;21.35;;;;;;;14.32;100.00;101682.44;5032958;28;20033;-81
2023/05/09 00:34:14;;;;;;;27.83;21.42;;;;;;;14.28;100.00;101680.13;5026499;28;20546;-81
2023/05/09 00:36:40;;;;;;;24.50;19.77;;;;;;;14.30;100.00;101672.84;5030607;28;20036;-81
2023/05/09 00:39:06;;;;;;;26.65;20.00;;;;;;;14.26;100.00;101669.56;5034040;28;20021;-81
2023/05/09 00:41:32;;;;;;;25.75;20.35;;;;;;;14.29;100.00;101676.47;5033090;28;20527;-81
2023/05/09 00:43:57;;;;;;;26.33;19.95;;;;;;;14.30;100.00;101679.03;5028549;28;20106;-81
2023/05/09 00:46:22;;;;;;;27.30;19.67;;;;;;;14.30;100.00;101672.84;5026522;28;20120;-81
2023/05/09 00:48:48;;;;;;;25.65;19.48;;;;;;;14.25;100.00;101663.38;5031099;28;20095;-81
2023/05/09 00:51:14;;;;;;;25.50;19.70;;;;;;;14.27;100.00;101670.41;5036651;28;20021;-81
2023/05/09 00:53:39;;;;;;;24.40;18.80;;;;;;;14.26;100.00;101664.22;5038746;28;20033;-81
2023/05/09 00:56:06;;;;;;;26.42;19.02;;;;;;;14.29;100.00;101663.97;5028196;28;20026;-81
2023/05/09 00:58:31;;;;;;;23.73;17.40;;;;;;;14.21;100.00;101653.88;5036285;28;20031;-81
2023/05/09 01:00:56;;;;;;;23.33;18.08;;;;;;;14.24;100.00;101653.66;5033545;28;20026;-81
2023/05/09 01:03:22;;;;;;;25.02;17.98;;;;;;;14.23;100.00;101646.59;5031740;28;20447;-81
2023/05/09 01:05:59;;;;;;;24.00;16.65;;;;;;;14.26;100.00;101650.84;5038506;28;20064;-81
2023/05/09 01:08:45;;;;;;;23.58;17.65;;;;;;;14.27;100.00;101636.50;5026392;28;20045;-81
2023/05/09 01:11:40;;;;;;;24.20;17.50;;;;;;;14.24;100.00;101634.09;5041103;28;20033;-81
2023/05/09 01:14:29;;;;;;;22.73;16.73;;;;;;;14.23;100.00;101632.41;5045938;28;20093;-81
2023/05/09 01:17:04;;;;;;;23.45;17.15;;;;;;;14.21;100.00;101639.69;5041097;28;20018;-81
2023/05/09 01:19:46;;;;;;;22.40;17.00;;;;;;;14.19;100.00;101618.44;5035762;28;20020;-81
2023/05/09 01:22:15;;;;;;;22.52;17.02;;;;;;;14.20;100.00;101619.28;5046879;28;20054;-81
2023/05/09 01:24:55;;;;;;;21.90;17.00;;;;;;;14.18;100.00;101605.19;5047028;28;20053;-81
2023/05/09 01:27:30;;;;;;;22.48;17.80;;;;;;;14.18;100.00;101611.38;5040322;28;20029;-81
2023/05/09 01:30:01;;;;;;;20.65;16.30;;;;;;;14.17;100.00;101611.50;5029875;28;20025;-80
2023/05/09 01:32:29;;;;;;;22.98;16.67;;;;;;;14.16;100.00;101601.81;5032350;28;20422;-81
2023/05/09 01:34:58;;;;;;;23.70;16.90;;;;;;;14.17;100.00;101612.38;5022834;28;20472;-81
2023/05/09 01:37:29;;;;;;;21.08;16.48;;;;;;;14.11;100.00;101586.13;5020890;28;20022;-81
2023/05/09 01:40:09;;;;;;;21.52;16.90;;;;;;;14.13;100.00;101586.84;5031122;28;20037;-81
2023/05/09 01:42:47;;;;;;;22.17;16.48;;;;;;;14.14;100.00;101590.38;5030698;28;20064;-81
2023/05/09 01:45:14;;;;;;;22.25;16.90;;;;;;;14.09;100.00;101585.41;5033375;28;20021;-81
2023/05/09 01:47:41;;;;;;;20.98;16.15;;;;;;;14.10;100.00;101579.09;5028072;28;20430;-81
2023/05/09 01:50:10;;;;;;;24.02;16.45;;;;;;;14.11;100.00;101575.44;5033264;28;20096;-81
2023/05/09 01:52:36;;;;;;;21.23;16.95;;;;;;;14.07;100.00;101566.84;5026322;28;20029;-81
2023/05/09 01:55:03;;;;;;;20.50;16.88;;;;;;;14.05;100.00;101579.47;5029888;28;20026;-81
2023/05/09 01:57:29;;;;;;;23.52;16.50;;;;;;;14.09;100.00;101576.53;5034841;28;20065;-80
2023/05/09 01:59:57;;;;;;;21.52;16.15;;;;;;;14.02;100.00;101568.16;5031037;28;20029;-81
2023/05/09 02:02:26;;;;;;;22.67;16.80;;;;;;;14.04;100.00;101575.09;5035258;28;20048;-81
2023/05/09 02:04:54;;;;;;;21.40;17.05;;;;;;;14.02;100.00;101563.69;5018092;28;20064;-81
2023/05/09 02:07:21;;;;;;;21.65;17.05;;;;;;;14.01;100.00;101566.47;5027236;28;20041;-81
2023/05/09 02:09:49;;;;;;;24.13;16.58;;;;;;;13.97;100.00;101555.19;5026232;28;20032;-81
2023/05/09 02:12:14;;;;;;;21.80;17.63;;;;;;;13.96;100.00;101563.31;5027838;28;20045;-81
2023/05/09 02:14:39;;;;;;;23.33;17.27;;;;;;;13.91;100.00;101549.50;5030294;28;20029;-81
2023/05/09 02:17:05;;;;;;;21.90;17.02;;;;;;;13.95;100.00;101565.13;5037748;28;20045;-80
2023/05/09 02:19:34;;;;;;;24.13;17.10;;;;;;;13.90;100.00;101564.66;5026295;28;20096;-81
2023/05/09 02:22:01;;;;;;;23.27;18.30;;;;;;;13.94;100.00;101578.59;5036472;28;20111;-81
2023/05/09 02:24:27;;;;;;;27.38;17.42;;;;;;;13.90;100.00;101575.31;5038765;28;20388;-81
2023/05/09 02:26:54;;;;;;;24.83;17.25;;;;;;;13.90;100.00;101577.16;5037538;28;20064;-81
2023/05/09 02:29:24;;;;;;;25.85;17.30;;;;;;;13.86;100.00;101573.88;5020341;28;20034;-81
2023/05/09 02:31:51;;;;;;;21.00;16.23;;;;;;;13.83;100.00;101577.63;5021196;28;20075;-81
2023/05/09 02:34:18;;;;;;;23.08;17.58;;;;;;;13.78;100.00;101570.97;5032774;28;20025;-81
2023/05/09 02:36:44;;;;;;;21.70;16.02;;;;;;;13.77;100.00;101570.13;5024155;28;20037;-81
2023/05/09 02:39:10;;;;;;;27.42;17.40;;;;;;;13.78;100.00;101576.31;5032421;28;20499;-81
2023/05/09 02:41:35;;;;;;;22.98;16.73;;;;;;;13.73;100.00;101563.31;5032338;28;20067;-81
2023/05/09 02:44:00;;;;;;;24.00;17.77;;;;;;;13.73;100.00;101560.63;5025068;28;20035;-81
2023/05/09 02:46:26;;;;;;;23.90;17.35;;;;;;;13.73;100.00;101560.63;5026987;28;20037;-82
2023/05/09 02:48:51;;;;;;;24.85;17.48;;;;;;;13.72;100.00;101552.75;5026591;28;20022;-81
2023/05/09 02:51:16;;;;;;;25.08;17.08;;;;;;;13.72;100.00;101552.75;5028328;28;20032;-81
2023/05/09 02:53:42;;;;;;;24.30;17.38;;;;;;;13.72;100.00;101544.75;5032492;28;20044;-81
2023/05/09 02:56:08;;;;;;;21.25;17.02;;;;;;;13.71;100.00;101551.91;5031847;28;20463;-81
2023/05/09 02:58:33;;;;;;;25.83;17.48;;;;;;;13.69;100.00;101541.34;5030930;28;20025;-81
2023/05/09 03:00:59;;;;;;;24.05;17.30;;;;;;;13.67;100.00;101545.97;5038105;28;20597;-82
2023/05/09 03:03:24;;;;;;;24.70;18.30;;;;;;;13.64;100.00;101532.84;5033076;28;20033;-81
2023/05/09 03:05:49;;;;;;;25.58;17.08;;;;;;;13.63;100.00;101535.66;5026744;28;20052;-81
2023/05/09 03:08:15;;;;;;;24.67;17.30;;;;;;;13.62;100.00;101525.94;5030210;28;20041;-81
2023/05/09 03:10:40;;;;;;;24.17;17.60;;;;;;;13.58;100.00;101525.31;5039222;28;20026;-81
2023/05/09 03:13:05;;;;;;;24.33;17.90;;;;;;;13.60;100.00;101525.19;5037688;28;20025;-81
2023/05/09 03:15:30;;;;;;;24.23;18.08;;;;;;;13.57;100.00;101522.78;5028637;28;20049;-81
2023/05/09 03:17:56;;;;;;;24.05;17.77;;;;;;;13.57;100.00;101517.44;5037902;28;20379;-81
2023/05/09 03:20:21;;;;;;;26.67;17.67;;;;;;;13.57;100.00;101515.59;5032986;28;20069;-81
2023/05/09 03:22:47;;;;;;;25.10;18.42;;;;;;;13.58;100.00;101519.16;5040990;28;20853;-81
2023/05/09 03:25:13;;;;;;;26.52;17.38;;;;;;;13.58;100.00;101521.81;5052493;28;20034;-81
2023/05/09 03:27:38;;;;;;;22.40;18.42;;;;;;;13.57;100.00;101514.75;5053840;28;20037;-81
2023/05/09 03:30:04;;;;;;;26.67;19.13;;;;;;;13.57;100.00;101512.94;5053009;28;20077;-81
2023/05/09 03:32:29;;;;;;;25.33;18.02;;;;;;;13.54;100.00;101504.31;5045411;28;20044;-81
2023/05/09 03:34:54;;;;;;;26.50;19.38;;;;;;;13.47;100.00;101502.16;5056945;28;20013;-81
2023/05/09 03:37:20;;;;;;;29.02;18.27;;;;;;;13.50;100.00;101509.91;5045486;28;20037;-81
2023/05/09 03:39:45;;;;;;;24.80;18.15;;;;;;;13.49;100.00;101513.56;5051809;28;20014;-81
2023/05/09 03:42:10;;;;;;;27.20;19.23;;;;;;;13.49;100.00;101513.56;5042118;28;20033;-81
2023/05/09 03:44:36;;;;;;;27.00;18.33;;;;;;;13.46;100.00;101502.28;5054732;28;20053;-81
2023/05/09 03:47:01;;;;;;;24.38;18.30;;;;;;;13.42;100.00;101493.66;5054989;28;20017;-81
2023/05/09 03:49:26;;;;;;;28.75;19.00;;;;;;;13.42;100.00;101493.66;5051181;28;20041;-81
2023/05/09 03:51:52;;;;;;;28.05;19.15;;;;;;;13.44;100.00;101499.72;5045315;28;20033;-81
2023/05/09 03:54:17;;;;;;;24.27;18.33;;;;;;;13.44;100.00;101490.84;5054004;28;20080;-81
2023/05/09 03:56:42;;;;;;;26.63;18.13;;;;;;;13.42;100.00;101483.00;5043702;28;20052;-81
2023/05/09 03:59:07;;;;;;;24.75;16.98;;;;;;;13.37;100.00;101479.81;5029831;28;20454;-81
2023/05/09 04:01:33;;;;;;;23.00;17.95;;;;;;;13.40;100.00;101487.56;5036464;28;20025;-81
2023/05/09 04:03:58;;;;;;;26.60;18.77;;;;;;;13.41;100.00;101483.13;5031688;28;20344;-81
2023/05/09 04:06:23;;;;;;;28.30;18.80;;;;;;;13.35;100.00;101464.91;5036362;28;20029;-81
2023/05/09 04:08:49;;;;;;;26.33;16.92;;;;;;;13.38;100.00;101478.00;5035051;28;20053;-81
2023/05/09 04:11:14;;;;;;;25.20;17.60;;;;;;;13.30;100.00;101455.41;5035206;28;20021;-81
2023/05/09 04:13:40;;;;;;;25.20;17.52;;;;;;;13.33;100.00;101463.19;5035792;28;20038;-81
2023/05/09 04:16:05;;;;;;;23.92;16.90;;;;;;;13.35;100.00;101470.25;5036189;28;20542;-81
2023/05/09 04:18:30;;;;;;;24.52;17.52;;;;;;;13.33;100.00;101465.03;5035020;28;20029;-81
2023/05/09 04:20:55;;;;;;;20.23;16.30;;;;;;;13.34;100.00;101458.72;5036743;28;20105;-81
2023/05/09 04:23:21;;;;;;;23.55;16.77;;;;;;;13.35;100.00;101462.25;5035394;28;20033;-81
2023/05/09 04:25:46;;;;;;;22.98;16.25;;;;;;;13.35;100.00;101464.91;5032556;28;20041;-81
2023/05/09 04:28:11;;;;;;;18.33;14.95;;;;;;;13.33;100.00;101462.34;5035473;28;20356;-81
2023/05/09 04:30:37;;;;;;;20.73;15.23;;;;;;;13.31;100.00;101464.28;5033306;28;20052;-81
2023/05/09 04:33:02;;;;;;;20.55;14.45;;;;;;;13.31;100.00;101453.59;5034253;28;20384;-81
2023/05/09 04:35:27;;;;;;;20.80;15.85;;;;;;;13.32;100.00;101464.19;5035532;28;20036;-81
2023/05/09 04:37:53;;;;;;;20.75;14.68;;;;;;;13.29;100.00;101460.88;5039308;28;20593;-81
2023/05/09 04:40:18;;;;;;;18.98;14.40;;;;;;;13.27;100.00;101452.13;5040546;28;20100;-81
2023/05/09 04:42:44;;;;;;;18.25;13.65;;;;;;;13.28;100.00;101452.00;5043160;28;20085;-81
2023/05/09 04:45:10;;;;;;;16.67;13.63;;;;;;;13.28;100.00;101448.50;5045396;28;20010;-81
2023/05/09 04:47:36;;;;;;;20.10;14.35;;;;;;;13.30;100.00;101449.22;5057159;28;20061;-81
2023/05/09 04:50:01;;;;;;;16.25;13.48;;;;;;;13.32;100.00;101452.66;5056616;28;20041;-81
2023/05/09 04:52:26;;;;;;;17.45;13.82;;;;;;;13.29;100.00;101436.88;5036250;28;20045;-81
2023/05/09 04:54:52;;;;;;;19.48;13.98;;;;;;;13.33;100.00;101438.34;5015959;28;20468;-81
2023/05/09 04:57:17;;;;;;;19.35;14.88;;;;;;;13.38;100.00;101448.66;5023110;28;20112;-81
2023/05/09 04:59:42;;;;;;;17.20;13.98;;;;;;;13.38;100.00;101438.00;5035054;28;20041;-81
2023/05/09 05:02:08;;;;;;;20.38;13.98;;;;;;;13.38;100.00;101425.50;5035574;28;20048;-81
2023/05/09 05:04:33;;;;;;;17.73;13.98;;;;;;;13.41;100.00;101425.25;5025731;28;20057;-81
2023/05/09 05:06:58;;;;;;;17.00;13.18;;;;;;;13.41;100.00;101417.25;5035537;28;20052;-81
2023/05/09 05:09:23;;;;;;;15.48;12.88;;;;;;;13.45;100.00;101410.69;5035110;28;20112;-81
2023/05/09 05:11:49;;;;;;;17.80;13.40;;;;;;;13.47;100.00;101408.75;5033767;28;20036;-81
2023/05/09 05:14:14;;;;;;;17.17;13.30;;;;;;;13.47;100.00;101410.56;5035001;28;20489;-81
2023/05/09 05:16:39;;;;;;;20.10;13.50;;;;;;;13.49;100.00;101401.47;5034810;28;20387;-81
2023/05/09 05:19:08;;;;;;;15.60;13.15;;;;;;;13.51;100.00;101404.03;5034793;28;20108;-81
2023/05/09 05:21:33;;;;;;;16.23;13.80;;;;;;;13.53;100.00;101402.06;5034910;28;20036;-81
2023/05/09 05:23:58;;;;;;;15.48;12.60;;;;;;;13.56;100.00;101401.81;5034880;28;20026;-82
2023/05/09 05:26:24;;;;;;;17.33;12.93;;;;;;;13.58;100.00;101393.69;5034964;28;20080;-81
2023/05/09 05:28:54;;;;;;;19.13;13.68;;;;;;;13.61;100.00;101398.78;5027576;28;20164;-81
2023/05/09 05:31:19;;;;;;;19.60;13.93;;;;;;;13.58;100.00;101380.34;5015784;28;20030;-81
2023/05/09 05:33:44;;;;;;;18.50;13.88;;;;;;;13.64;100.00;101394.06;5036918;28;20017;-82
2023/05/09 05:36:10;;;;;;;19.88;13.70;;;;;;;13.66;100.00;101381.41;5034840;28;20378;-81
2023/05/09 05:38:35;;;;;;;17.65;13.45;;;;;;;13.72;100.00;101385.41;5034235;28;20032;-82
2023/05/09 05:41:00;;;;;;;18.08;13.63;;;;;;;13.78;100.00;101384.06;5034319;28;20433;-82
2023/05/09 05:43:25;;;;;;;18.48;13.88;;;;;;;13.80;100.00;101382.97;5034104;28;20033;-81
2023/05/09 05:45:51;;;;;;;17.83;13.32;;;;;;;13.81;100.00;101371.31;5034794;28;20534;-81
2023/05/09 05:48:16;;;;;;;17.85;13.75;;;;;;;13.90;100.00;101377.72;5034403;28;20439;-82
2023/05/09 05:50:41;;;;;;;17.10;12.88;;;;;;;13.93;100.00;101377.47;5033670;28;20026;-81
2023/05/09 05:53:07;;;;;;;16.58;13.15;;;;;;;13.98;100.00;101377.09;5031782;28;20385;-81
2023/05/09 05:55:32;;;;;;;18.63;13.57;;;;;;;13.96;100.00;101369.22;5032080;28;20399;-81
2023/05/09 05:57:57;;;;;;;19.17;13.82;;;;;;;14.04;100.00;101368.59;5025075;28;20028;-81
2023/05/09 06:00:24;;;;;;;23.00;13.90;;;;;;;14.06;100.00;101366.63;5033242;28;20029;-81
2023/05/09 06:02:50;;;;;;;18.95;13.20;;;;;;;14.11;100.00;101367.09;5026162;28;20771;-81
2023/05/09 06:05:15;;;;;;;29.45;14.25;;;;;;;14.16;100.00;101372.91;5030220;28;20037;-81
2023/05/09 06:07:42;;;;;;;25.35;14.10;;;;;;;14.21;100.00;101361.84;5029519;28;20103;-81
2023/05/09 06:10:08;;;;;;;21.80;13.20;;;;;;;14.25;100.00;101361.44;5028604;28;20112;-81
2023/05/09 06:12:34;;;;;;;27.65;14.35;;;;;;;14.31;100.00;101349.38;5027193;28;20033;-81
2023/05/09 06:14:59;;;;;;;17.17;13.98;;;;;;;14.33;100.00;101350.09;5024673;28;20033;-81
2023/05/09 06:17:24;;;;;;;18.92;13.10;;;;;;;14.37;100.00;101351.56;5033001;28;20360;-81
2023/05/09 06:19:50;;;;;;;18.77;13.52;;;;;;;14.40;100.00;101345.06;5025893;28;20109;-81
2023/05/09 06:22:15;;;;;;;16.45;12.93;;;;;;;14.43;100.00;101345.66;5029195;28;20352;-81
2023/05/09 06:24:40;;;;;;;20.90;13.38;;;;;;;14.49;100.00;101346.13;5022737;28;20041;-81
2023/05/09 06:27:08;;;;;;;18.52;13.38;;;;;;;14.50;100.00;101345.16;5033106;28;20057;-81
2023/05/09 06:29:34;;;;;;;20.10;13.00;;;;;;;14.50;100.00;101346.00;5025923;28;20024;-81
2023/05/09 06:31:59;;;;;;;15.95;12.65;;;;;;;14.53;100.00;101342.22;5044348;28;20063;-81
2023/05/09 06:34:25;;;;;;;14.75;12.88;;;;;;;14.54;100.00;101342.09;5032414;28;20033;-82
2023/05/09 06:36:51;;;;;;;15.05;12.27;;;;;;;14.57;100.00;101343.63;5031160;28;20049;-82
2023/05/09 06:39:16;;;;;;;17.73;12.32;;;;;;;14.60;100.00;101343.41;5031332;28;20120;-82
2023/05/09 06:41:42;;;;;;;17.23;13.33;;;;;;;14.61;100.00;101337.09;5034226;28;20037;-82
2023/05/09 06:44:07;;;;;;;14.80;11.90;;;;;;;14.66;100.00;101334.88;5044393;28;20284;-82
2023/05/09 06:46:32;;;;;;;18.98;12.57;;;;;;;14.72;100.00;101330.81;5037626;28;20044;-83
2023/05/09 06:49:00;;;;;;;16.83;12.48;;;;;;;14.73;100.00;101327.16;5037604;28;20104;-82
2023/05/09 06:51:25;;;;;;;15.65;11.68;;;;;;;14.79;100.00;101324.81;5045968;28;20103;-81
2023/05/09 06:53:51;;;;;;;13.10;11.45;;;;;;;14.80;100.00;101314.94;5032964;28;20073;-81
2023/05/09 06:56:18;;;;;;;15.93;11.88;;;;;;;14.85;100.00;101318.06;5030258;28;20045;-81
2023/05/09 06:58:43;;;;;;;17.23;11.95;;;;;;;14.90;100.00;101321.19;5027922;28;20021;-81
2023/05/09 07:01:09;;;;;;;13.02;11.13;;;;;;;14.93;100.00;101317.41;5027985;28;20033;-81
2023/05/09 07:03:34;;;;;;;13.77;11.32;;;;;;;14.95;100.00;101318.97;5018528;28;20022;-81
2023/05/09 07:06:00;;;;;;;13.30;11.73;;;;;;;14.97;100.00;101316.13;5026435;28;20378;-82
2023/05/09 07:08:25;;;;;;;13.15;10.90;;;;;;;14.97;100.00;101308.13;5034599;28;20107;-82
2023/05/09 07:10:51;;;;;;;12.55;10.50;;;;;;;14.99;100.00;101301.66;5035451;28;20406;-81
2023/05/09 07:13:16;;;;;;;13.38;10.75;;;;;;;15.07;100.00;101311.69;5035919;28;20376;-81
2023/05/09 07:15:41;;;;;;;13.55;10.48;;;;;;;15.07;100.00;101302.81;5033444;28;20403;-81
2023/05/09 07:18:07;;;;;;;14.80;10.70;;;;;;;15.11;100.00;101301.56;5024518;28;20022;-81
2023/05/09 07:20:32;;;;;;;13.18;10.80;;;;;;;15.13;100.00;101304.94;5024627;28;20017;-81
2023/05/09 07:22:57;;;;;;;12.10;9.88;;;;;;;15.07;100.00;101300.13;5032743;28;20052;-82
2023/05/09 07:25:23;;;;;;;12.65;9.48;;;;;;;15.05;100.00;101294.06;5034385;28;20080;-81
2023/05/09 07:27:48;;;;;;;11.68;10.20;;;;;;;15.08;100.00;101301.84;5034290;28;20452;-81
2023/05/09 07:30:13;;;;;;;10.87;9.67;;;;;;;15.07;100.00;101295.66;5034442;28;20025;-81
2023/05/09 07:32:39;;;;;;;12.38;9.60;;;;;;;15.07;100.00;101300.13;5031073;28;20292;-81
2023/05/09 07:35:04;;;;;;;12.97;9.70;;;;;;;15.03;100.00;101296.88;5033173;28;20037;-81
2023/05/09 07:37:30;;;;;;;11.02;9.48;;;;;;;14.98;100.00;101301.78;5034242;28;20742;-81
2023/05/09 07:39:55;;;;;;;11.98;9.00;;;;;;;14.95;100.00;101294.91;5033593;28;20026;-81
2023/05/09 07:42:21;;;;;;;11.80;9.30;;;;;;;14.92;100.00;101300.53;5028100;28;20033;-81
2023/05/09 07:44:46;;;;;;;10.55;8.90;;;;;;;14.89;100.00;101291.91;5021985;28;20105;-81
2023/05/09 07:47:11;;;;;;;11.57;9.43;;;;;;;14.91;100.00;101298.81;5034707;28;20053;-81
2023/05/09 07:49:37;;;;;;;14.38;9.88;;;;;;;14.87;100.00;101291.19;5031640;28;20544;-81
2023/05/09 07:52:02;;;;;;;10.40;9.30;;;;;;;14.85;100.00;101293.16;5029595;28;20081;-80
2023/05/09 07:54:27;;;;;;;13.98;9.50;;;;;;;14.80;100.00;101283.72;5042693;28;20099;-81
2023/05/09 07:56:53;;;;;;;13.32;9.95;;;;;;;14.80;100.00;101286.41;5037920;28;20022;-81
2023/05/09 07:59:19;;;;;;;10.95;8.75;;;;;;;14.79;100.00;101279.34;5034603;28;20032;-81
2023/05/09 08:01:44;;;;;;;11.90;9.80;;;;;;;14.80;100.00;101270.34;5041796;28;20036;-81
2023/05/09 08:04:10;;;;;;;11.75;9.80;;;;;;;14.82;100.00;101261.34;5041924;28;20160;-81
2023/05/09 08:06:35;;;;;;;13.43;10.20;;;;;;;14.86;100.00;101262.78;5041596;28;20025;-81
2023/05/09 08:09:01;;;;;;;11.35;9.85;;;;;;;14.92;100.00;101265.75;5036303;28;20023;-81
2023/05/09 08:11:26;;;;;;;12.57;9.35;;;;;;;14.94;100.00;101266.44;5034009;28;20496;-81
2023/05/09 08:13:52;;;;;;;10.27;8.73;;;;;;;14.96;100.00;101258.28;5034712;28;20116;-81
2023/05/09 08:16:17;;;;;;;10.73;9.30;;;;;;;15.01;100.00;101255.22;5024146;28;20363;-81
2023/05/09 08:18:46;;;;;;;11.80;8.63;;;;;;;15.02;100.00;101249.75;5034409;28;20025;-81
2023/05/09 08:21:11;;;;;;;8.45;7.55;;;;;;;15.05;100.00;101251.28;5033805;28;20050;-81
2023/05/09 08:23:36;;;;;;;8.43;7.63;;;;;;;15.08;100.00;101241.13;5032796;28;20041;-81
2023/05/09 08:26:04;;;;;;;9.90;8.00;;;;;;;15.13;100.00;101246.09;5035090;28;20120;-81
2023/05/09 08:28:29;;;;;;;8.43;6.90;;;;;;;15.12;100.00;101241.72;5032726;28;20025;-80
2023/05/09 08:30:55;;;;;;;8.20;7.37;;;;;;;15.09;100.00;101220.59;5035133;28;20053;-81
2023/05/09 08:33:21;;;;;;;8.30;7.50;;;;;;;15.09;100.00;101220.59;5033789;28;20276;-81
2023/05/09 08:35:51;;;;;;;10.23;7.28;;;;;;;15.20;100.00;101225.81;5039924;28;20064;-82
2023/05/09 08:38:17;;;;;;;11.23;7.70;;;;;;;15.21;100.00;101221.31;5027626;28;20041;-81
2023/05/09 08:40:43;;;;;;;9.40;7.78;;;;;;;15.27;100.00;101223.44;5032422;28;20096;-81
2023/05/09 08:43:10;;;;;;;10.50;8.27;;;;;;;15.30;100.00;101226.66;5029636;28;20063;-81
2023/05/09 08:45:46;;;;;;;8.93;8.02;;;;;;;15.30;100.00;101220.47;5034515;28;20095;-82
2023/05/09 08:48:14;;;;;;;11.52;8.75;;;;;;;15.24;100.00;101216.53;5020898;28;20045;-82
2023/05/09 08:50:39;;;;;;;9.13;8.25;;;;;;;15.24;100.00;101218.34;5031522;28;20036;-81
2023/05/09 08:53:05;;;;;;;12.07;7.95;;;;;;;15.25;100.00;101218.22;5028696;28;20017;-81
2023/05/09 08:55:31;;;;;;;11.82;7.63;;;;;;;15.24;100.00;101215.66;5034012;28;20471;-82
2023/05/09 08:57:56;;;;;;;8.18;7.38;;;;;;;15.24;100.00;101204.97;5037079;28;20113;-82
2023/05/09 09:00:22;;;;;;;9.50;7.63;;;;;;;15.22;100.00;101204.28;5036448;28;20037;-81
2023/05/09 09:02:48;;;;;;;8.35;7.32;;;;;;;15.19;100.00;101205.41;5033943;28;20038;-82
2023/05/09 09:05:13;;;;;;;7.10;6.40;;;;;;;15.15;100.00;101196.81;5024576;28;20039;-82
2023/05/09 09:07:40;;;;;;;10.23;6.68;;;;;;;15.12;100.00;101199.78;5036527;28;20112;-82
2023/05/09 09:10:09;;;;;;;8.73;6.65;;;;;;;15.12;100.00;101205.13;5036379;28;20022;-82
2023/05/09 09:12:36;;;;;;;7.28;6.57;;;;;;;15.05;100.00;101195.09;5037147;28;20079;-83
2023/05/09 09:15:04;;;;;;;10.18;7.45;;;;;;;15.01;100.00;101191.84;5039708;28;20021;-83
2023/05/09 09:17:32;;;;;;;7.93;6.95;;;;;;;15.05;100.00;101203.13;5032969;28;20471;-83
2023/05/09 09:20:00;;;;;;;8.90;6.90;;;;;;;15.03;100.00;101199.75;5034139;28;20116;-83
2023/05/09 09:22:32;;;;;;;9.52;7.40;;;;;;;15.01;100.00;101199.88;5035435;28;20328;-82
2023/05/09 09:25:03;;;;;;;8.75;7.13;;;;;;;14.95;100.00;101193.28;5031892;28;20034;-81
2023/05/09 09:27:28;;;;;;;9.27;7.00;;;;;;;14.95;100.00;101195.06;5028172;28;20026;-81
2023/05/09 09:29:54;;;;;;;9.00;7.00;;;;;;;14.92;100.00;101193.53;5051537;28;20025;-81
2023/05/09 09:32:19;;;;;;;9.25;6.93;;;;;;;14.91;100.00;101186.47;5055115;28;20040;-81
2023/05/09 09:35:05;;;;;;;7.20;6.50;;;;;;;14.93;100.00;101183.69;5055807;28;20029;-81
2023/05/09 09:37:33;;;;;;;8.07;6.55;;;;;;;14.94;100.00;101172.00;5036024;28;20060;-81
2023/05/09 09:39:58;;;;;;;7.47;6.78;;;;;;;14.97;100.00;101172.56;5038184;28;20029;-82
2023/05/09 09:42:23;;;;;;;7.50;6.85;;;;;;;15.04;100.00;101166.66;5034306;28;20033;-81
2023/05/09 09:45:02;;;;;;;7.17;6.43;;;;;;;15.08;100.00;101166.22;5025639;28;20083;-81
2023/05/09 09:47:31;;;;;;;7.97;6.40;;;;;;;15.07;100.00;101167.25;5034945;28;20319;-83
2023/05/09 09:49:57;;;;;;;8.18;6.32;;;;;;;15.02;100.00;101166.81;5026582;28;20030;-83
2023/05/09 09:52:25;;;;;;;6.75;6.15;;;;;;;15.06;100.00;101172.72;5029424;28;20041;-81
2023/05/09 09:54:54;;;;;;;7.88;6.38;;;;;;;15.11;100.00;101165.97;5035534;28;20403;-81
2023/05/09 09:57:34;;;;;;;7.30;6.30;;;;;;;15.13;100.00;101163.16;5035563;28;20044;-81
2023/05/09 09:59:59;;;;;;;7.25;6.00;;;;;;;15.11;100.00;101162.44;5035304;28;20427;-81
2023/05/09 10:02:25;;;;;;;10.23;7.13;;;;;;;15.14;100.00;101154.16;5034755;28;20113;-81
2023/05/09 10:04:50;;;;;;;7.22;6.45;;;;;;;15.11;100.00;101154.41;5024955;28;20104;-81
2023/05/09 10:07:20;;;;;;;7.22;6.25;;;;;;;15.09;100.00;101145.69;5034213;28;20080;-82
2023/05/09 10:09:48;;;;;;;8.15;5.80;;;;;;;15.16;100.00;101158.34;5024665;28;20045;-81
2023/05/09 10:12:17;;;;;;;8.05;6.90;;;;;;;15.20;100.00;101156.25;5025547;28;20124;-82
2023/05/09 10:14:44;;;;;;;8.35;6.03;;;;;;;15.14;100.00;101154.97;5032811;28;20040;-83
2023/05/09 10:17:13;;;;;;;6.38;5.78;;;;;;;15.09;100.00;101148.38;5025987;28;20112;-83
2023/05/09 10:19:44;;;;;;;6.93;5.82;;;;;;;14.98;100.00;101136.78;5024786;28;20060;-82
2023/05/09 10:22:13;;;;;;;8.52;5.90;;;;;;;14.91;100.00;101141.00;5033098;28;20063;-83
2023/05/09 10:24:40;;;;;;;7.28;6.10;;;;;;;14.93;100.00;101136.38;5027983;28;20029;-83
2023/05/09 10:27:10;;;;;;;7.45;6.40;;;;;;;15.01;100.00;101145.53;5036340;28;20030;-83
2023/05/09 10:29:43;;;;;;;7.88;5.75;;;;;;;15.00;100.00;101139.34;5033541;28;20048;-83
2023/05/09 10:32:37;;;;;;;6.63;6.03;;;;;;;14.97;100.00;101132.44;5033617;28;20034;-82
2023/05/09 10:35:05;;;;;;;7.15;5.93;;;;;;;14.91;100.00;101132.16;5024942;28;20029;-83
2023/05/09 10:37:31;;;;;;;7.30;5.95;;;;;;;14.88;100.00;101129.75;5022308;28;20026;-84
2023/05/09 10:39:56;;;;;;;7.38;5.95;;;;;;;14.87;100.00;101122.72;5030659;28;20644;-84
2023/05/09 10:42:24;;;;;;;7.10;6.40;;;;;;;14.84;100.00;101120.31;5026848;28;20025;-84
2023/05/09 10:44:50;;;;;;;6.45;5.90;;;;;;;14.85;100.00;101122.84;5033492;28;20025;-84
2023/05/09 10:47:16;;;;;;;8.32;6.32;;;;;;;14.93;100.00;101117.66;5031762;28;20029;-84
2023/05/09 10:49:43;;;;;;;7.55;6.68;;;;;;;14.98;100.00;101122.59;5034272;28;20069;-84
2023/05/09 10:52:08;;;;;;;7.72;6.32;;;;;;;14.92;100.00;101107.09;5040414;28;20029;-84
2023/05/09 10:54:35;;;;;;;9.32;6.70;;;;;;;14.94;100.00;101103.31;5041137;28;20045;-84
2023/05/09 10:57:01;;;;;;;7.72;7.03;;;;;;;14.97;100.00;101112.84;5037253;28;20040;-85
2023/05/09 10:59:36;;;;;;;8.98;6.88;;;;;;;14.98;100.00;101112.72;5043073;28;20398;-85
2023/05/09 11:02:03;;;;;;;6.97;6.38;;;;;;;14.91;100.00;101114.28;5043055;28;20036;-85
2023/05/09 11:04:30;;;;;;;8.20;6.47;;;;;;;14.95;100.00;101112.16;5017751;28;20033;-85